Time;durP1;ratioP1;P1;durP2;ratioP2;P2;SDS_P1;SDS_P2;PMS_P1;PMS_P2;Temp;Humidity;BMP_temperature;BMP_pressure;BME280_temperature;BME280_humidity;BME280_pressure;Samples;Min_cycle;Max_cycle;Signal;HPM_P1;HPM_P2
2023/03/25 00:00:13;;;;;;;2.80;2.60;;;14.40;99.90;;;;;;5102984;28;20259;-76
2023/03/25 00:02:41;;;;;;;5.50;3.13;;;14.40;99.90;;;;;;5105247;28;20235;-76
2023/03/25 00:05:09;;;;;;;4.75;3.20;;;14.30;99.90;;;;;;5101526;27;20717;-77
2023/03/25 00:07:36;;;;;;;4.22;3.00;;;14.30;99.90;;;;;;5112001;28;20221;-77
2023/03/25 00:10:03;;;;;;;5.65;3.28;;;14.30;99.90;;;;;;5109956;27;20265;-76
2023/03/25 00:12:32;;;;;;;4.22;3.33;;;14.30;99.90;;;;;;5101002;28;20197;-76
2023/03/25 00:14:59;;;;;;;4.88;3.55;;;14.30;99.90;;;;;;5104175;28;20548;-77
2023/03/25 00:17:27;;;;;;;5.00;3.60;;;14.30;99.90;;;;;;5100001;28;20240;-76
2023/03/25 00:19:55;;;;;;;4.97;3.10;;;14.30;99.90;;;;;;5105640;28;20319;-77
2023/03/25 00:22:23;;;;;;;6.45;3.50;;;14.20;99.90;;;;;;5097334;28;20272;-77
2023/03/25 00:24:50;;;;;;;7.03;3.95;;;14.20;99.90;;;;;;5102276;28;20221;-76
2023/03/25 00:27:18;;;;;;;5.90;3.33;;;14.20;99.90;;;;;;5100235;28;20302;-76
2023/03/25 00:29:47;;;;;;;6.82;4.07;;;14.20;99.90;;;;;;5096550;28;20622;-77
2023/03/25 00:32:15;;;;;;;6.05;3.65;;;14.20;99.90;;;;;;5100483;28;20202;-75
2023/03/25 00:34:46;;;;;;;6.40;3.47;;;14.20;99.90;;;;;;5101013;28;20192;-75
2023/03/25 00:37:16;;;;;;;4.72;3.50;;;14.20;99.90;;;;;;5098672;28;20200;-77
2023/03/25 00:39:43;;;;;;;5.57;3.97;;;14.20;99.90;;;;;;5100410;28;20222;-76
2023/03/25 00:42:12;;;;;;;6.20;3.50;;;14.10;99.90;;;;;;5098750;28;20200;-76
2023/03/25 00:44:39;;;;;;;5.88;3.95;;;14.10;99.90;;;;;;5104601;28;20201;-77
2023/03/25 00:47:10;;;;;;;4.18;3.08;;;14.10;99.90;;;;;;5099616;28;20196;-76
2023/03/25 00:49:37;;;;;;;5.72;3.72;;;14.10;99.90;;;;;;5104937;28;20217;-77
2023/03/25 00:52:04;;;;;;;4.28;3.63;;;14.10;99.90;;;;;;5103813;28;20227;-77
2023/03/25 00:54:34;;;;;;;5.57;3.25;;;14.10;99.90;;;;;;5094520;28;20205;-76
2023/03/25 00:57:01;;;;;;;5.50;3.80;;;14.10;99.90;;;;;;5101686;28;20208;-77
2023/03/25 00:59:28;;;;;;;4.25;3.15;;;14.00;99.90;;;;;;5106689;28;20583;-77
2023/03/25 01:01:57;;;;;;;6.68;3.80;;;14.00;99.90;;;;;;5101471;28;21904;-77
2023/03/25 01:04:26;;;;;;;4.25;3.75;;;14.00;99.90;;;;;;5103382;28;20201;-76
2023/03/25 01:06:53;;;;;;;9.02;3.95;;;14.00;99.90;;;;;;5118382;28;20280;-77
2023/03/25 01:09:21;;;;;;;3.33;3.13;;;13.90;99.90;;;;;;5101123;28;20213;-77
2023/03/25 01:11:48;;;;;;;4.60;3.13;;;13.90;99.90;;;;;;5102315;28;20201;-78
2023/03/25 01:14:17;;;;;;;6.85;4.43;;;13.90;99.90;;;;;;5108790;28;20269;-77
2023/03/25 01:16:45;;;;;;;5.22;3.65;;;13.90;99.90;;;;;;5099088;28;20258;-77
2023/03/25 01:19:13;;;;;;;4.40;3.97;;;13.90;99.90;;;;;;5100561;28;20307;-77
2023/03/25 01:21:44;;;;;;;5.70;3.50;;;13.80;99.90;;;;;;5099113;28;20260;-76
2023/03/25 01:24:13;;;;;;;5.50;3.42;;;13.80;99.90;;;;;;5100356;28;20225;-76
2023/03/25 01:26:42;;;;;;;4.15;3.72;;;13.80;99.90;;;;;;5103162;28;20197;-76
2023/03/25 01:29:09;;;;;;;5.20;3.60;;;13.80;99.90;;;;;;5104351;27;20224;-76
2023/03/25 01:31:36;;;;;;;5.53;3.95;;;13.80;99.90;;;;;;5109691;27;20740;-75
2023/03/25 01:34:03;;;;;;;6.50;4.30;;;13.80;99.90;;;;;;5106053;27;20701;-76
2023/03/25 01:36:30;;;;;;;5.57;4.53;;;13.80;99.90;;;;;;5108381;27;20233;-76
2023/03/25 01:39:00;;;;;;;6.50;4.55;;;13.80;99.90;;;;;;5103949;27;20225;-77
2023/03/25 01:41:28;;;;;;;4.80;4.22;;;13.70;99.90;;;;;;5110583;27;20204;-76
2023/03/25 01:44:03;;;;;;;6.28;4.78;;;13.70;99.90;;;;;;5102796;27;20676;-77
2023/03/25 01:46:30;;;;;;;6.00;4.70;;;13.70;99.90;;;;;;5104483;28;20249;-76
2023/03/25 01:49:00;;;;;;;4.90;4.40;;;13.70;99.90;;;;;;5102948;27;20289;-76
2023/03/25 01:51:31;;;;;;;6.90;4.22;;;13.60;99.90;;;;;;5110778;27;20243;-78
2023/03/25 01:54:03;;;;;;;5.10;4.20;;;13.60;99.90;;;;;;5126649;28;20193;-77
2023/03/25 01:56:33;;;;;;;4.70;4.30;;;13.60;99.90;;;;;;5124425;27;20721;-77
2023/03/25 01:59:02;;;;;;;4.95;4.45;;;13.70;99.90;;;;;;5104445;27;20353;-77
2023/03/25 02:01:30;;;;;;;4.55;3.67;;;13.60;99.90;;;;;;5107257;28;21381;-77
2023/03/25 02:04:01;;;;;;;5.03;4.20;;;13.50;99.90;;;;;;5111757;27;20201;-77
2023/03/25 02:06:33;;;;;;;4.55;3.83;;;13.30;99.90;;;;;;5111969;27;20663;-78
2023/03/25 02:09:05;;;;;;;4.13;3.58;;;13.20;99.90;;;;;;5099874;27;20262;-76
2023/03/25 02:11:32;;;;;;;4.30;4.00;;;13.10;99.90;;;;;;5097219;28;20281;-76
2023/03/25 02:14:03;;;;;;;4.40;3.97;;;13.00;99.90;;;;;;5106460;28;20213;-77
2023/03/25 02:16:36;;;;;;;3.85;3.45;;;12.90;99.90;;;;;;5105422;27;20294;-77
2023/03/25 02:19:31;;;;;;;4.80;4.35;;;12.80;99.90;;;;;;5101788;27;20232;-76
2023/03/25 02:22:36;;;;;;;7.72;4.78;;;12.80;99.90;;;;;;5107545;27;20287;-77
2023/03/25 02:25:20;;;;;;;5.68;4.95;;;12.80;99.90;;;;;;5076648;27;20206;-77
2023/03/25 02:27:55;;;;;;;4.60;4.05;;;12.80;99.90;;;;;;5105357;27;20197;-76
2023/03/25 02:30:40;;;;;;;4.75;4.30;;;12.90;99.90;;;;;;5098468;27;20224;-76
2023/03/25 02:33:44;;;;;;;4.40;4.07;;;12.90;99.90;;;;;;5103233;27;20213;-75
2023/03/25 02:36:55;;;;;;;4.18;3.80;;;12.90;99.90;;;;;;5108311;27;20189;-76
2023/03/25 02:39:31;;;;;;;4.88;4.47;;;12.80;99.90;;;;;;5102227;27;20303;-77
2023/03/25 02:42:04;;;;;;;4.35;4.00;;;12.70;99.90;;;;;;5106447;27;20205;-77
2023/03/25 02:44:35;;;;;;;3.70;3.40;;;12.70;99.90;;;;;;5101565;27;20248;-75
2023/03/25 02:47:07;;;;;;;4.38;3.97;;;12.70;99.90;;;;;;5103862;27;20232;-76
2023/03/25 02:49:36;;;;;;;3.60;3.30;;;12.60;99.90;;;;;;5107574;27;20260;-77
2023/03/25 02:52:11;;;;;;;3.70;3.40;;;12.60;99.90;;;;;;5101173;27;21973;-76
2023/03/25 02:54:43;;;;;;;3.88;3.58;;;12.60;99.90;;;;;;5104908;27;20189;-76
2023/03/25 02:57:13;;;;;;;3.60;3.30;;;12.60;99.90;;;;;;5103975;27;20229;-75
2023/03/25 02:59:42;;;;;;;4.38;3.72;;;12.60;99.90;;;;;;5099826;28;20248;-76
2023/03/25 03:02:10;;;;;;;3.80;3.50;;;12.60;99.90;;;;;;5109445;27;20688;-77
2023/03/25 03:04:48;;;;;;;3.90;3.30;;;12.60;99.90;;;;;;5112877;27;20216;-76
2023/03/25 03:07:23;;;;;;;2.95;2.75;;;12.60;99.90;;;;;;5106362;27;20667;-75
2023/03/25 03:10:00;;;;;;;3.92;3.58;;;12.60;99.90;;;;;;5097027;27;20259;-76
2023/03/25 03:12:45;;;;;;;3.63;3.33;;;12.60;99.90;;;;;;5102856;27;20208;-76
2023/03/25 03:15:24;;;;;;;3.40;3.10;;;12.70;99.90;;;;;;5102191;27;20277;-76
2023/03/25 03:18:05;;;;;;;3.92;3.63;;;12.70;99.90;;;;;;5100783;28;20710;-76
2023/03/25 03:20:39;;;;;;;4.38;4.00;;;12.60;99.90;;;;;;5103144;27;20660;-79
2023/03/25 03:23:13;;;;;;;4.22;3.92;;;12.60;99.90;;;;;;5099002;27;20224;-77
2023/03/25 03:25:49;;;;;;;3.55;3.25;;;12.60;99.90;;;;;;5100187;27;20580;-76
2023/03/25 03:28:24;;;;;;;3.92;3.47;;;12.60;99.90;;;;;;5095493;28;20200;-78
2023/03/25 03:30:58;;;;;;;3.70;3.40;;;12.60;99.90;;;;;;5096905;28;20195;-75
2023/03/25 03:33:31;;;;;;;3.55;3.25;;;12.60;99.90;;;;;;5099721;28;20204;-76
2023/03/25 03:36:01;;;;;;;3.15;2.95;;;12.60;99.90;;;;;;5097493;27;20224;-76
2023/03/25 03:38:34;;;;;;;4.50;3.30;;;12.60;99.90;;;;;;5101158;28;20309;-77
2023/03/25 03:41:06;;;;;;;3.90;3.60;;;12.60;99.90;;;;;;5096983;27;20216;-76
2023/03/25 03:43:40;;;;;;;3.92;3.63;;;12.50;99.90;;;;;;5097490;27;20205;-76
2023/03/25 03:46:13;;;;;;;3.80;3.50;;;12.50;99.90;;;;;;5096136;27;20209;-77
2023/03/25 03:48:44;;;;;;;4.10;3.78;;;12.50;99.90;;;;;;5102474;28;20221;-77
2023/03/25 03:51:17;;;;;;;3.70;3.50;;;12.40;99.90;;;;;;5097181;27;20208;-76
2023/03/25 03:53:49;;;;;;;4.35;3.80;;;12.30;99.90;;;;;;5104887;27;20294;-76
2023/03/25 03:56:21;;;;;;;3.75;3.45;;;12.30;99.90;;;;;;5103709;27;20197;-77
2023/03/25 03:58:52;;;;;;;4.00;3.70;;;12.30;99.90;;;;;;5098720;28;20216;-76
2023/03/25 04:01:29;;;;;;;4.50;3.88;;;12.30;99.90;;;;;;5107415;28;21104;-77
2023/03/25 04:03:59;;;;;;;4.95;4.20;;;12.30;99.90;;;;;;5096655;28;20211;-77
2023/03/25 04:06:34;;;;;;;4.03;3.72;;;12.20;99.90;;;;;;5100666;28;20220;-76
2023/03/25 04:09:05;;;;;;;3.85;3.40;;;12.20;99.90;;;;;;5095817;27;20228;-77
2023/03/25 04:11:39;;;;;;;4.75;4.35;;;12.10;99.90;;;;;;5101077;27;20250;-77
2023/03/25 04:14:07;;;;;;;4.70;4.30;;;12.10;99.90;;;;;;5096018;28;20211;-76
2023/03/25 04:16:36;;;;;;;4.85;4.38;;;11.90;99.90;;;;;;5098293;28;20202;-76
2023/03/25 04:19:04;;;;;;;4.22;3.92;;;11.70;99.90;;;;;;5096237;28;23336;-76
2023/03/25 04:21:31;;;;;;;4.00;3.58;;;11.60;99.90;;;;;;5098576;28;20254;-76
2023/03/25 04:24:00;;;;;;;4.15;3.85;;;11.60;99.90;;;;;;5096105;28;20839;-78
2023/03/25 04:26:28;;;;;;;4.47;4.07;;;11.60;99.90;;;;;;5100608;28;20212;-77
2023/03/25 04:28:58;;;;;;;4.28;3.95;;;11.60;99.90;;;;;;5094868;28;20214;-75
2023/03/25 04:31:29;;;;;;;4.13;3.80;;;11.60;99.90;;;;;;5099197;28;20287;-76
2023/03/25 04:33:57;;;;;;;4.38;3.97;;;11.60;99.90;;;;;;5106036;28;20208;-76
2023/03/25 04:36:27;;;;;;;5.00;4.32;;;11.60;99.90;;;;;;5100183;28;20192;-76
2023/03/25 04:38:55;;;;;;;4.22;3.85;;;11.60;99.90;;;;;;5102600;28;20266;-76
2023/03/25 04:41:22;;;;;;;3.97;3.67;;;11.60;99.90;;;;;;5100542;28;20628;-76
2023/03/25 04:43:49;;;;;;;3.85;3.55;;;11.60;99.90;;;;;;5097029;28;20202;-77
2023/03/25 04:46:18;;;;;;;3.25;3.05;;;11.60;99.90;;;;;;5099257;28;21172;-76
2023/03/25 04:48:46;;;;;;;4.70;4.30;;;11.70;99.90;;;;;;5101243;28;20265;-76
2023/03/25 04:51:15;;;;;;;4.28;3.88;;;11.60;99.90;;;;;;5102976;28;20699;-77
2023/03/25 04:53:42;;;;;;;4.13;3.83;;;11.60;99.90;;;;;;5099850;28;21150;-76
2023/03/25 04:56:15;;;;;;;3.45;3.25;;;11.60;99.90;;;;;;5100358;28;20206;-76
2023/03/25 04:58:42;;;;;;;3.90;3.60;;;11.60;99.90;;;;;;5106303;27;20232;-77
2023/03/25 05:01:16;;;;;;;3.90;3.60;;;11.60;99.90;;;;;;5122701;28;20212;-78
2023/03/25 05:03:44;;;;;;;4.53;4.13;;;11.60;99.90;;;;;;5127025;27;20268;-77
2023/03/25 05:06:11;;;;;;;4.07;3.67;;;11.60;99.90;;;;;;5118691;27;20605;-76
2023/03/25 05:08:38;;;;;;;4.68;4.25;;;11.70;99.90;;;;;;5107152;27;20255;-77
2023/03/25 05:11:06;;;;;;;4.20;3.90;;;11.60;99.90;;;;;;5103674;27;20201;-78
2023/03/25 05:13:33;;;;;;;4.45;4.15;;;11.60;99.90;;;;;;5105571;27;20674;-77
2023/03/25 05:16:00;;;;;;;4.38;3.97;;;11.60;99.90;;;;;;5099725;27;20931;-77
2023/03/25 05:18:27;;;;;;;4.13;3.83;;;11.60;99.90;;;;;;5100993;28;20250;-77
2023/03/25 05:20:55;;;;;;;4.45;4.05;;;11.60;99.90;;;;;;5105528;27;20609;-76
2023/03/25 05:23:23;;;;;;;4.85;3.67;;;11.60;99.90;;;;;;5102792;27;20275;-77
2023/03/25 05:25:51;;;;;;;3.70;3.40;;;11.60;99.90;;;;;;5110088;27;20248;-76
2023/03/25 05:28:18;;;;;;;5.03;4.10;;;11.60;99.90;;;;;;5102860;27;20806;-77
2023/03/25 05:30:47;;;;;;;4.88;4.30;;;11.70;99.90;;;;;;5103457;27;20699;-76
2023/03/25 05:33:16;;;;;;;3.90;3.60;;;11.60;99.90;;;;;;5101047;27;20200;-76
2023/03/25 05:35:44;;;;;;;4.70;4.30;;;11.60;99.90;;;;;;5100155;27;20644;-76
2023/03/25 05:38:15;;;;;;;4.07;3.78;;;11.50;99.90;;;;;;5101573;27;20205;-76
2023/03/25 05:40:43;;;;;;;4.65;4.25;;;11.50;99.90;;;;;;5097093;27;20266;-77
2023/03/25 05:43:10;;;;;;;4.00;3.70;;;11.50;99.90;;;;;;5103204;27;20572;-76
2023/03/25 05:45:37;;;;;;;3.92;3.63;;;11.60;99.90;;;;;;5103605;27;20201;-76
2023/03/25 05:48:04;;;;;;;3.83;3.53;;;11.60;99.90;;;;;;5101513;28;20200;-77
2023/03/25 05:50:31;;;;;;;3.67;3.38;;;11.70;99.90;;;;;;5100421;27;20349;-77
2023/03/25 05:52:58;;;;;;;4.18;3.88;;;11.70;99.90;;;;;;5100177;27;20237;-76
2023/03/25 05:55:27;;;;;;;3.53;3.33;;;11.70;99.90;;;;;;5099990;27;20190;-75
2023/03/25 05:57:55;;;;;;;3.85;3.55;;;11.70;99.90;;;;;;5109842;27;20193;-77
2023/03/25 06:00:23;;;;;;;4.65;4.25;;;11.70;99.90;;;;;;5102114;28;20266;-76
2023/03/25 06:02:50;;;;;;;4.40;4.03;;;11.70;99.90;;;;;;5098815;28;20202;-77
2023/03/25 06:05:22;;;;;;;4.22;3.92;;;11.70;99.90;;;;;;5097950;27;20289;-76
2023/03/25 06:07:50;;;;;;;4.55;3.92;;;11.70;99.90;;;;;;5096878;28;20235;-76
2023/03/25 06:10:17;;;;;;;3.47;3.28;;;11.70;99.90;;;;;;5105013;27;20248;-76
2023/03/25 06:12:47;;;;;;;3.80;3.50;;;11.80;99.90;;;;;;5102236;27;20201;-76
2023/03/25 06:15:17;;;;;;;3.55;3.25;;;11.80;99.90;;;;;;5101328;27;20205;-76
2023/03/25 06:17:45;;;;;;;3.30;3.10;;;11.80;99.90;;;;;;5094186;28;20253;-77
2023/03/25 06:20:15;;;;;;;3.50;3.15;;;11.90;99.90;;;;;;5098917;27;20795;-76
2023/03/25 06:22:43;;;;;;;2.97;2.78;;;12.00;99.90;;;;;;5101182;27;20238;-76
2023/03/25 06:25:11;;;;;;;3.67;3.38;;;12.10;99.90;;;;;;5097402;27;20201;-75
2023/03/25 06:27:40;;;;;;;4.07;3.10;;;12.10;99.90;;;;;;5096540;27;20209;-76
2023/03/25 06:30:10;;;;;;;3.80;3.50;;;12.20;99.90;;;;;;5099186;27;20293;-75
2023/03/25 06:32:38;;;;;;;3.63;3.33;;;12.30;99.90;;;;;;5098782;27;20264;-75
2023/03/25 06:35:08;;;;;;;3.20;3.00;;;12.40;99.90;;;;;;5100448;28;20254;-76
2023/03/25 06:37:35;;;;;;;3.80;3.40;;;12.50;99.90;;;;;;5094244;27;20296;-76
2023/03/25 06:40:05;;;;;;;3.90;3.60;;;12.60;99.90;;;;;;5101843;27;20248;-75
2023/03/25 06:42:33;;;;;;;4.57;4.05;;;12.60;99.90;;;;;;5100348;27;20200;-76
2023/03/25 06:45:01;;;;;;;4.55;4.20;;;12.60;99.90;;;;;;5101134;27;20270;-76
2023/03/25 06:47:30;;;;;;;5.03;4.53;;;12.60;99.90;;;;;;5096193;27;20206;-75
2023/03/25 06:49:57;;;;;;;4.28;3.88;;;12.60;99.90;;;;;;5100303;27;20244;-75
2023/03/25 06:52:24;;;;;;;4.40;4.00;;;12.70;99.90;;;;;;5100499;27;20232;-75
2023/03/25 06:54:50;;;;;;;4.18;3.88;;;12.80;99.90;;;;;;5101882;27;20789;-78
2023/03/25 06:57:17;;;;;;;4.32;3.97;;;13.20;99.90;;;;;;5117053;27;20205;-75
2023/03/25 06:59:46;;;;;;;4.18;3.60;;;13.50;99.90;;;;;;5101708;27;20213;-76
2023/03/25 07:02:13;;;;;;;3.85;3.55;;;13.40;99.90;;;;;;5101026;27;20970;-77
2023/03/25 07:04:42;;;;;;;3.55;3.25;;;13.30;99.90;;;;;;5099303;27;20283;-75
2023/03/25 07:07:09;;;;;;;3.08;2.88;;;13.30;99.90;;;;;;5101385;27;20197;-76
2023/03/25 07:09:36;;;;;;;3.33;3.13;;;13.30;99.90;;;;;;5098091;27;20284;-76
2023/03/25 07:12:03;;;;;;;3.15;2.88;;;13.30;99.90;;;;;;5097397;27;20225;-75
2023/03/25 07:14:30;;;;;;;3.80;3.00;;;13.30;99.90;;;;;;5099001;28;20241;-76
2023/03/25 07:16:57;;;;;;;3.65;3.20;;;13.40;99.90;;;;;;5104927;28;20402;-76
2023/03/25 07:19:24;;;;;;;3.42;3.17;;;13.50;99.90;;;;;;5100006;28;20229;-76
2023/03/25 07:21:53;;;;;;;4.40;3.92;;;13.80;99.90;;;;;;5096482;27;20213;-76
2023/03/25 07:24:20;;;;;;;3.47;3.17;;;13.90;99.90;;;;;;5104553;27;20225;-75
2023/03/25 07:26:47;;;;;;;2.60;2.30;;;14.10;99.90;;;;;;5100567;27;20198;-76
2023/03/25 07:29:14;;;;;;;2.95;2.75;;;14.20;99.90;;;;;;5097114;27;20274;-75
2023/03/25 07:31:41;;;;;;;2.72;2.53;;;14.40;99.90;;;;;;5101589;28;20267;-76
2023/03/25 07:34:08;;;;;;;2.70;2.50;;;14.90;99.90;;;;;;5096666;28;20236;-75
2023/03/25 07:36:35;;;;;;;2.55;2.35;;;15.10;99.90;;;;;;5106579;28;20554;-76
2023/03/25 07:39:04;;;;;;;2.15;2.05;;;14.80;99.90;;;;;;5099930;28;20265;-76
2023/03/25 07:41:31;;;;;;;2.60;2.35;;;14.90;99.90;;;;;;5102808;28;20215;-76
2023/03/25 07:43:58;;;;;;;2.72;2.53;;;15.40;99.90;;;;;;5095988;27;20232;-77
2023/03/25 07:46:25;;;;;;;3.33;2.70;;;15.80;99.90;;;;;;5102809;28;20347;-77
2023/03/25 07:48:52;;;;;;;3.03;2.53;;;16.40;99.90;;;;;;5096119;28;21113;-76
2023/03/25 07:51:19;;;;;;;2.97;2.78;;;17.00;99.90;;;;;;5093593;28;20221;-76
2023/03/25 07:53:46;;;;;;;3.75;3.25;;;17.40;99.90;;;;;;5101777;28;20188;-77
2023/03/25 07:56:15;;;;;;;3.67;2.78;;;17.80;99.90;;;;;;5105304;28;20205;-77
2023/03/25 07:58:43;;;;;;;3.30;2.80;;;18.50;99.90;;;;;;5097238;28;20228;-76
2023/03/25 08:01:10;;;;;;;3.03;2.83;;;18.80;99.90;;;;;;5104647;27;20209;-76
2023/03/25 08:03:38;;;;;;;4.97;3.25;;;18.60;99.90;;;;;;5102116;27;20658;-76
2023/03/25 08:06:06;;;;;;;4.03;2.80;;;18.50;99.90;;;;;;5097018;28;20296;-76
2023/03/25 08:08:34;;;;;;;3.42;2.88;;;18.90;99.90;;;;;;5101624;27;20223;-76
2023/03/25 08:11:01;;;;;;;2.42;2.33;;;18.70;99.90;;;;;;5101355;28;20198;-76
2023/03/25 08:13:30;;;;;;;2.30;2.20;;;18.30;99.90;;;;;;5094848;27;20203;-76
2023/03/25 08:15:57;;;;;;;2.70;2.50;;;18.20;99.90;;;;;;5097219;28;20236;-76
2023/03/25 08:18:24;;;;;;;4.40;2.63;;;18.30;99.90;;;;;;5096419;28;20251;-76
2023/03/25 08:20:52;;;;;;;2.50;2.13;;;18.50;99.90;;;;;;5093131;28;21191;-77
2023/03/25 08:23:21;;;;;;;2.78;2.53;;;18.60;99.90;;;;;;5085034;28;20210;-76
2023/03/25 08:25:49;;;;;;;2.20;2.00;;;18.70;99.90;;;;;;5086597;28;20210;-76
2023/03/25 08:28:21;;;;;;;3.15;2.03;;;19.00;99.90;;;;;;5095126;28;20193;-75
2023/03/25 08:30:53;;;;;;;2.40;2.20;;;19.20;99.90;;;;;;5091426;28;20212;-74
2023/03/25 08:33:21;;;;;;;2.20;2.10;;;19.20;99.90;;;;;;5116827;27;20202;-77
2023/03/25 08:35:49;;;;;;;2.22;2.05;;;19.40;99.90;;;;;;5119906;28;20209;-77
2023/03/25 08:38:17;;;;;;;2.30;2.10;;;19.50;99.90;;;;;;5114398;27;20228;-76
2023/03/25 08:40:44;;;;;;;3.70;2.20;;;20.10;99.90;;;;;;5103191;27;20209;-75
2023/03/25 08:43:11;;;;;;;2.85;2.05;;;20.40;99.90;;;;;;5101203;28;20205;-74
2023/03/25 08:45:38;;;;;;;2.55;2.25;;;20.60;99.90;;;;;;5104603;27;20261;-76
2023/03/25 08:48:07;;;;;;;2.45;2.25;;;20.60;99.90;;;;;;5100401;27;20229;-75
2023/03/25 08:50:34;;;;;;;2.38;2.17;;;20.40;99.90;;;;;;5101306;27;20196;-75
2023/03/25 08:53:01;;;;;;;2.47;2.28;;;20.10;99.90;;;;;;5119583;27;20185;-76
2023/03/25 08:55:28;;;;;;;2.55;1.95;;;20.40;99.90;;;;;;5101623;27;20985;-75
2023/03/25 08:57:55;;;;;;;2.78;1.92;;;20.40;99.90;;;;;;5098974;28;20193;-76
2023/03/25 09:00:24;;;;;;;2.38;2.15;;;20.10;99.90;;;;;;5103356;27;20272;-75
2023/03/25 09:02:51;;;;;;;2.00;1.90;;;19.90;99.90;;;;;;5098893;27;20201;-75
2023/03/25 09:05:19;;;;;;;1.95;1.77;;;20.20;99.90;;;;;;5103573;27;20205;-75
2023/03/25 09:07:46;;;;;;;2.10;2.00;;;20.80;99.90;;;;;;5101177;27;20193;-76
2023/03/25 09:10:14;;;;;;;2.15;2.05;;;21.10;99.90;;;;;;5104792;27;20246;-76
2023/03/25 09:12:41;;;;;;;2.28;2.08;;;20.30;99.90;;;;;;5101199;27;20254;-76
2023/03/25 09:15:10;;;;;;;1.95;1.80;;;19.60;99.90;;;;;;5101863;27;20197;-76
2023/03/25 09:17:37;;;;;;;2.10;1.95;;;19.50;99.90;;;;;;5101558;27;20209;-75
2023/03/25 09:20:07;;;;;;;2.17;1.83;;;20.10;99.90;;;;;;5103431;27;20746;-75
2023/03/25 09:22:36;;;;;;;2.20;1.80;;;20.30;99.90;;;;;;5100090;28;20923;-74
2023/03/25 09:25:05;;;;;;;2.13;1.92;;;20.70;99.90;;;;;;5098285;27;20201;-77
2023/03/25 09:27:32;;;;;;;3.47;2.03;;;20.70;99.90;;;;;;5100805;27;20208;-74
2023/03/25 09:29:59;;;;;;;1.80;1.70;;;20.90;99.90;;;;;;5099161;28;20303;-76
2023/03/25 09:32:26;;;;;;;1.80;1.70;;;20.90;99.90;;;;;;5103294;27;20198;-78
2023/03/25 09:34:53;;;;;;;3.28;1.85;;;20.90;99.90;;;;;;5101618;27;20208;-76
2023/03/25 09:37:20;;;;;;;2.10;1.90;;;21.20;99.90;;;;;;5101721;27;20209;-75
2023/03/25 09:39:48;;;;;;;1.80;1.70;;;21.20;99.90;;;;;;5100583;27;20253;-76
2023/03/25 09:42:45;;;;;;;1.60;1.50;;;21.20;99.90;;;;;;5095408;27;20313;-76
2023/03/25 09:45:26;;;;;;;2.20;1.90;;;21.60;99.90;;;;;;5097389;28;20675;-76
2023/03/25 09:47:57;;;;;;;1.92;1.77;;;21.30;99.90;;;;;;5103880;27;20196;-76
2023/03/25 09:50:26;;;;;;;1.92;1.75;;;21.50;99.90;;;;;;5109810;27;20233;-77
2023/03/25 09:53:00;;;;;;;1.50;1.40;;;21.20;99.90;;;;;;5109163;28;20197;-76
2023/03/25 09:55:32;;;;;;;1.58;1.48;;;20.60;99.90;;;;;;5099676;27;20321;-78
2023/03/25 09:58:04;;;;;;;1.77;1.67;;;20.20;99.90;;;;;;5099217;27;20220;-75
2023/03/25 10:00:32;;;;;;;2.53;1.85;;;19.60;99.90;;;;;;5099748;27;20719;-76
2023/03/25 10:03:13;;;;;;;1.75;1.63;;;19.40;99.90;;;;;;5101045;27;20208;-76
2023/03/25 10:05:56;;;;;;;2.55;1.80;;;19.90;99.90;;;;;;5099431;27;20572;-75
2023/03/25 10:08:37;;;;;;;1.95;1.80;;;19.90;99.90;;;;;;5102380;27;20293;-77
2023/03/25 10:11:08;;;;;;;2.05;1.95;;;19.90;99.90;;;;;;5106119;27;20234;-76
2023/03/25 10:13:43;;;;;;;2.40;2.20;;;19.60;99.90;;;;;;5102209;27;20249;-77
2023/03/25 10:16:23;;;;;;;3.70;2.33;;;19.50;99.90;;;;;;5100065;27;20229;-76
2023/03/25 10:19:00;;;;;;;2.42;2.22;;;19.90;99.90;;;;;;5100632;27;20640;-76
2023/03/25 10:21:38;;;;;;;2.00;1.90;;;20.60;99.90;;;;;;5099512;27;20311;-76
2023/03/25 10:24:16;;;;;;;1.52;1.42;;;21.50;99.90;;;;;;5099574;28;20735;-75
2023/03/25 10:26:48;;;;;;;1.65;1.55;;;22.20;99.90;;;;;;5092625;27;20242;-76
2023/03/25 10:29:19;;;;;;;2.60;1.80;;;22.30;99.90;;;;;;5091225;28;20221;-77
2023/03/25 10:31:52;;;;;;;2.03;1.73;;;22.00;99.90;;;;;;5089649;27;20305;-77
2023/03/25 10:34:22;;;;;;;1.98;1.85;;;21.90;99.90;;;;;;5094822;27;20250;-77
2023/03/25 10:36:53;;;;;;;2.47;2.28;;;22.10;99.90;;;;;;5095821;28;20220;-76
2023/03/25 10:39:22;;;;;;;2.70;2.47;;;22.00;99.90;;;;;;5089355;28;20234;-76
2023/03/25 10:41:56;;;;;;;3.35;2.20;;;22.00;99.90;;;;;;5095798;28;20320;-76
2023/03/25 10:44:26;;;;;;;5.05;1.90;;;22.00;99.90;;;;;;5090727;28;20208;-75
2023/03/25 10:47:00;;;;;;;2.83;1.70;;;22.00;99.90;;;;;;5097278;27;20247;-76
2023/03/25 10:49:30;;;;;;;2.70;1.67;;;21.70;99.90;;;;;;5109475;28;20216;-75
2023/03/25 10:51:58;;;;;;;1.67;1.58;;;21.50;99.90;;;;;;5097644;27;20208;-76
2023/03/25 10:54:30;;;;;;;1.63;1.52;;;21.50;99.90;;;;;;5096815;27;20292;-76
2023/03/25 10:57:02;;;;;;;2.47;1.50;;;21.50;99.90;;;;;;5096419;28;20406;-76
2023/03/25 10:59:34;;;;;;;1.77;1.60;;;21.50;99.90;;;;;;5096275;28;20637;-76
2023/03/25 11:02:11;;;;;;;1.50;1.40;;;20.90;99.90;;;;;;5097820;28;20257;-76
2023/03/25 11:04:43;;;;;;;1.88;1.52;;;20.30;99.90;;;;;;5094714;28;20205;-76
2023/03/25 11:07:18;;;;;;;1.38;1.27;;;20.00;99.90;;;;;;5094772;28;20305;-75
2023/03/25 11:09:46;;;;;;;1.50;1.40;;;20.00;99.90;;;;;;5099803;28;20633;-75
2023/03/25 11:12:19;;;;;;;2.15;1.48;;;20.00;99.90;;;;;;5101313;27;20201;-76
2023/03/25 11:14:55;;;;;;;1.13;1.13;;;20.00;99.90;;;;;;5101184;27;20204;-76
2023/03/25 11:17:24;;;;;;;1.30;1.25;;;20.00;99.90;;;;;;5097564;27;20201;-75
2023/03/25 11:19:55;;;;;;;1.52;1.20;;;20.10;99.90;;;;;;5094613;28;20929;-75
2023/03/25 11:22:26;;;;;;;3.50;1.45;;;20.00;99.90;;;;;;5094401;27;20294;-74
2023/03/25 11:24:59;;;;;;;1.77;1.20;;;19.90;99.90;;;;;;5094659;27;20636;-77
2023/03/25 11:27:29;;;;;;;2.17;1.65;;;19.70;99.90;;;;;;5096210;27;20197;-76
2023/03/25 11:30:01;;;;;;;1.52;1.42;;;19.70;99.90;;;;;;5099015;27;20248;-75
2023/03/25 11:32:33;;;;;;;2.40;1.75;;;19.70;99.90;;;;;;5091960;27;20746;-76
2023/03/25 11:35:02;;;;;;;1.42;1.33;;;19.50;99.90;;;;;;5096977;27;20266;-74
2023/03/25 11:37:30;;;;;;;1.90;1.67;;;19.40;99.90;;;;;;5092785;27;20201;-76
2023/03/25 11:40:05;;;;;;;1.40;1.30;;;19.30;99.90;;;;;;5094215;27;20224;-76
2023/03/25 11:42:39;;;;;;;1.33;1.23;;;19.30;99.90;;;;;;5097392;28;20227;-75
2023/03/25 11:45:18;;;;;;;1.60;1.50;;;19.30;99.90;;;;;;5093741;27;20200;-75
2023/03/25 11:47:45;;;;;;;1.45;1.35;;;19.20;99.90;;;;;;5113771;27;20195;-76
2023/03/25 11:50:21;;;;;;;1.40;1.30;;;19.10;99.90;;;;;;5095331;27;20309;-75
2023/03/25 11:52:50;;;;;;;1.13;1.13;;;19.00;99.90;;;;;;5093627;27;20228;-75
2023/03/25 11:55:20;;;;;;;2.35;1.40;;;19.00;99.90;;;;;;5092862;27;20232;-75
2023/03/25 11:57:50;;;;;;;1.50;1.40;;;19.00;99.90;;;;;;5097220;27;20232;-76
2023/03/25 12:00:28;;;;;;;1.50;1.40;;;18.90;99.90;;;;;;5086481;27;20316;-76
2023/03/25 12:03:01;;;;;;;1.70;1.60;;;18.80;99.90;;;;;;5091955;27;20213;-75
2023/03/25 12:05:28;;;;;;;1.90;1.20;;;18.90;99.90;;;;;;5093760;28;20709;-75
2023/03/25 12:08:04;;;;;;;1.33;1.23;;;19.10;99.90;;;;;;5094242;28;20254;-74
2023/03/25 12:10:45;;;;;;;1.60;1.50;;;19.10;99.90;;;;;;5096971;28;20267;-75
2023/03/25 12:13:23;;;;;;;1.60;1.50;;;19.20;99.90;;;;;;5091646;28;20200;-75
2023/03/25 12:15:57;;;;;;;1.70;1.50;;;19.70;99.90;;;;;;5095777;28;20846;-75
2023/03/25 12:18:42;;;;;;;1.38;1.27;;;19.90;99.90;;;;;;5109254;28;21616;-75
2023/03/25 12:21:22;;;;;;;2.03;1.55;;;20.00;99.90;;;;;;5116220;28;21471;-77
2023/03/25 12:24:01;;;;;;;1.60;1.50;;;20.60;99.90;;;;;;5114100;28;20227;-75
2023/03/25 12:26:35;;;;;;;1.50;1.40;;;20.70;99.90;;;;;;5097959;28;20201;-75
2023/03/25 12:29:23;;;;;;;1.40;1.30;;;20.30;99.90;;;;;;5093015;28;20221;-74
2023/03/25 12:32:13;;;;;;;1.40;1.30;;;20.00;99.90;;;;;;5092110;28;20280;-73
2023/03/25 12:34:53;;;;;;;1.33;1.30;;;20.20;99.90;;;;;;5092764;28;21519;-74
2023/03/25 12:37:28;;;;;;;1.45;1.30;;;20.50;99.90;;;;;;5094626;28;20238;-75
2023/03/25 12:40:10;;;;;;;1.30;1.20;;;20.70;99.90;;;;;;5097536;28;20224;-76
2023/03/25 12:42:46;;;;;;;2.30;1.42;;;20.70;99.90;;;;;;5096044;28;20228;-75
2023/03/25 12:45:31;;;;;;;2.53;1.50;;;20.80;99.90;;;;;;5105244;28;20257;-77
2023/03/25 12:48:10;;;;;;;1.50;1.40;;;20.80;99.90;;;;;;5103466;28;20216;-75
2023/03/25 12:50:49;;;;;;;1.65;1.30;;;20.80;99.90;;;;;;5093317;28;20228;-75
2023/03/25 12:53:40;;;;;;;1.40;1.30;;;20.50;99.90;;;;;;5097298;28;20277;-75
2023/03/25 12:56:21;;;;;;;1.27;1.17;;;20.60;99.90;;;;;;5095921;28;20205;-74
2023/03/25 12:59:18;;;;;;;1.63;1.30;;;20.50;99.90;;;;;;5093129;28;20324;-76
2023/03/25 13:01:56;;;;;;;1.10;1.10;;;20.50;99.90;;;;;;5095621;28;20620;-75
2023/03/25 13:04:40;;;;;;;1.52;1.40;;;20.50;99.90;;;;;;5098852;28;21168;-74
2023/03/25 13:07:11;;;;;;;1.23;1.15;;;20.40;99.90;;;;;;5097679;28;20258;-76